Amunt
Inicio > meteoXarxa
Fes-te'n soci

METEOXARXA

la Torre d'en Doménec
Ubicació
Comarca la Plana Alta
Altitud (msnm) 303
Posició geogràfica 40° 15' 42.12" N, 00° 4' 9.12" E
Model Oregon WMR928
Presa de dades
Font de les dades Joan Carrió i Serra
Estadístiques. Resum
Data Temperatura (ºC) Humitat (%) Pressió (hPa) Vent (km/h) Precipit. (mm)
Mínima Mitjana Màxima Mínima Mitjana Màxima Mínima Mitjana Màxima Predom. Mitjana Ràfega màxima Total Dies de pluja
Mínima Mitjana Màxima Mínima Mitjana Màxima
Últimes dades diàries
16-01-2017 8,8     11,9     15,1 38,0 46,0 54,0 1.011,0 1.015,0 1.019,0 72,0 0,0  
15-01-2017 5,6     9,3     13,0 36,0 41,0 46,0 1.018,0 1.020,0 1.022,0 53,0 0,0  
14-01-2017 5,8     8,3     10,9 31,0 36,5 42,0 1.019,0 1.020,5 1.022,0 49,0 0,0  
13-01-2017 6,6     10,9     15,3 35,0 54,0 73,0 1.013,0 1.016,5 1.020,0 50,0 0,0  
12-01-2017 4,8     12,4     20,1 42,0 65,0 88,0 1.014,0 1.018,0 1.022,0 18,0 0,0  
11-01-2017 6,6     10,2     13,9 45,0 59,5 74,0 1.011,0 1.016,5 1.022,0 49,0 0,0  
10-01-2017 2,6     8,2     13,9 43,0 64,5 86,0 1.006,0 1.012,5 1.019,0 93,0 0,9  
09-01-2017 2,8     8,7     14,5 43,0 64,5 86,0 1.019,0 1.022,0 1.025,0 21,0 0,0  
08-01-2017 0,2     8,2     16,2 34,0 66,0 98,0 1.021,0 1.024,0 1.027,0 10,0 0,0  
07-01-2017 0,8     7,1     13,4 59,0 77,5 96,0 1.025,0 1.026,5 1.028,0 16,0 0,0  
06-01-2017 0,2     6,8     13,4 47,0 66,5 86,0 1.023,0 1.025,0 1.027,0 18,0 0,0  
05-01-2017 4,0     10,8     17,6 28,0 51,0 74,0 1.017,0 1.020,0 1.023,0 34,0 0,0  
04-01-2017 2,2     9,1     15,9 50,0 74,0 98,0 1.019,0 1.020,5 1.022,0 21,0 0,3  
03-01-2017 2,0     8,6     15,2 69,0 83,5 98,0 1.018,0 1.020,0 1.022,0 13,0 0,3  
02-01-2017 0,9     6,7     12,5 62,0 80,0 98,0 1.018,0 1.019,5 1.021,0 21,0 0,3  
01-01-2017 1,1     7,4     13,7 60,0 79,0 98,0 1.020,0 1.023,5 1.027,0 17,0 0,0  
31-12-2016 4,1     9,2     14,4 48,0 72,0 96,0 1.027,0 1.029,0 1.031,0 18,0 0,0  
30-12-2016 0,9     7,2     13,4 50,0 69,0 88,0 1.030,0 1.031,5 1.033,0 9,0 0,0  
29-12-2016 0,8     8,8     16,7 34,0 61,0 88,0 1.029,0 1.030,5 1.032,0 10,0 0,0  
28-12-2016 3,1     9,7     16,2 41,0 65,0 89,0 1.032,0 1.033,5 1.035,0 12,0 0,0  
27-12-2016 3,9     9,8     15,7 47,0 69,5 92,0 1.029,0 1.030,5 1.032,0 10,0 0,0  
26-12-2016 4,8     11,2     17,5 46,0 66,0 86,0 1.027,0 1.028,0 1.029,0 9,0 0,0  
25-12-2016 4,8     11,5     18,2 42,0 62,5 83,0 1.027,0 1.030,5 1.034,0 12,0 0,0  
24-12-2016 6,4     11,9     17,5 45,0 67,0 89,0 1.032,0 1.033,0 1.034,0 21,0 0,0  
23-12-2016 5,9     12,1     18,3 49,0 69,5 90,0 1.031,0 1.032,5 1.034,0 16,0 0,0  
22-12-2016 5,8     11,5     17,2 43,0 59,5 76,0 1.027,0 1.029,5 1.032,0 18,0 0,0  
21-12-2016 8,1     12,1     16,0 42,0 52,0 62,0 1.018,0 1.022,5 1.027,0 39,0 0,0  
20-12-2016 9,3     12,4     15,5 42,0 49,0 56,0 1.010,0 1.014,0 1.018,0 50,0 0,0  
19-12-2016 7,1     8,3     9,5 56,0 76,0 96,0 1.010,0 1.015,0 1.020,0 44,0 7,5  
18-12-2016 7,4     8,6     9,7 82,0 88,5 95,0 1.020,0 1.025,5 1.031,0 37,0 7,2  
17-12-2016 8,2     9,9     11,6 85,0 91,5 98,0 1.023,0 1.027,0 1.031,0 33,0 53,7  
16-12-2016 8,7     10,3     12,0 96,0 97,0 98,0 1.016,0 1.019,5 1.023,0 28,0 31,2  
Dades del mes en curs (actualitzades fins l'últim dia disponible)
01/2017 0,2 3,4 8,8 9,0 10,9 14,7 20,1 28,0 63,0 98,0 1.006,0 1.020,0 1.028,0   93,0 1,8  
Últimes dades mensuals
12/2016 0,8 5,8 12,2 10,6 9,5 15,5 18,4 49,0 75,8 97,0 1.013,0 1.024,8 1.033,5 50,0 134,4 12
11/2016 1,8 7,7 13,0 12,7 11,9 17,6 25,1 38,5 68,2 95,5 1.001,0 1.013,9 1.028,0 72,0 82,5 11
10/2016 8,5 12,8 16,5 17,7 16,3 22,5 27,2 60,0 77,5 88,5 1.001,0 1.016,2 1.028,5 37,0 40,8 11
09/2016 10,9 16,0 23,0 21,5 22,8 27,1 34,9 36,5 65,2 84,0 1.012,5 1.019,1 1.028,0 46,0 12,9 7
08/2016 12,9 17,5 20,9 23,2 24,2 28,8 32,2 38,5 66,8 80,5 1.012,0 1.019,4 1.025,0 40,0 34,8 2
07/2016 13,5 17,6 19,8 23,5 25,2 29,5 32,9 47,5 59,3 75,0 1.013,5 1.018,1 1.023,0 46,0 0,6 1
06/2016 10,5 14,8 19,3 20,8 23,0 26,8 30,3 37,0 57,8 71,0 1.002,5 1.016,1 1.023,0 51,0 3,0 3
05/2016 4,5 11,3 15,5 16,4 15,2 21,5 27,0 34,5 65,7 93,5 1.005,5 1.014,7 1.021,0 59,0 38,4 8
04/2016 3,6 8,6 12,8 14,0 13,0 19,4 26,1 36,0 63,5 95,5 1.006,5 1.013,5 1.019,5 72,0 54,9 10
03/2016 1,7 6,4 9,3 11,7 8,5 16,9 23,3 25,5 56,1 96,5 1.004,0 1.014,1 1.020,5 94,0 38,1 9
02/2016 -1,3 5,5 13,4 11,5 9,9 17,6 23,9 31,0 53,1 72,5 992,5 1.016,4 1.033,5 90,0 21,4 4
01/2016 1,6 5,8 11,1 11,2 10,7 16,7 21,8 34,0 61,9 85,0 1.004,0 1.020,1 1.033,5 77,0 3,6 5
12/2015 2,4 5,8 10,7 11,8 13,7 17,7 21,5 59,0 76,4 89,0 1.022,0 1.029,5 1.035,5 27,0 1,4 7
Dades de l'any en curs (actualitzades fins l'últim dia disponible)
2017 0,2 3,4 8,8 9,0 10,9 14,7 20,1 28,0 63,0 98,0 1.006,0 1.020,0 1.028,0   93,0 1,8  
Últimes dades anuals
2011 -3,9 11,1 21,0 16,2 5,8 21,4 33,8 21,5 53,2 94,0 92,0 608,7 54
2012 -3,2 10,5 15,5 16,1 20,1 21,8 35,2 38,8 58,6 72,6 1.015,8 1.018,2 1.020,7 106,0 372,0 39
2013 -1,7 10,3 14,2 15,7 19,6 21,2 32,4 49,9 62,4 70,3 1.007,7 1.017,5 1.024,7 105,0 503,0 50
2015 -1,5 11,0 17,4 16,5 19,7 21,9 38,0 45,5 63,6 76,4 1.011,8 1.018,2 1.029,5 98,0 529,2 68